createdAt,value
2022-10-06T00:01:39.297Z,12.40
2022-10-06T00:04:12.968Z,10.60
2022-10-06T00:06:49.170Z,13.60
2022-10-06T00:09:34.197Z,13.10
2022-10-06T00:12:07.701Z,11.20
2022-10-06T00:14:41.610Z,9.80
2022-10-06T00:17:17.459Z,10.10
2022-10-06T00:19:55.766Z,10.00
2022-10-06T00:22:34.377Z,11.90
2022-10-06T00:25:09.600Z,15.30
2022-10-06T00:27:45.466Z,11.60
2022-10-06T00:30:21.219Z,12.70
2022-10-06T00:32:57.518Z,12.10
2022-10-06T00:35:36.676Z,11.00
2022-10-06T00:38:12.248Z,12.90
2022-10-06T00:40:55.484Z,9.80
2022-10-06T00:43:46.022Z,10.00
2022-10-06T00:46:26.771Z,9.70
2022-10-06T00:49:07.600Z,9.40
2022-10-06T00:51:47.584Z,11.30
2022-10-06T00:54:22.487Z,11.80
2022-10-06T00:56:59.647Z,10.80
2022-10-06T00:59:35.770Z,10.80
2022-10-06T01:02:15.007Z,10.30
2022-10-06T01:04:52.408Z,10.10
2022-10-06T01:07:29.002Z,9.90
2022-10-06T01:10:06.188Z,10.90
2022-10-06T01:12:40.343Z,10.40
2022-10-06T01:15:17.848Z,13.20
2022-10-06T01:18:15.861Z,10.80
2022-10-06T01:20:54.977Z,9.80
2022-10-06T01:23:32.435Z,11.50
2022-10-06T01:26:18.771Z,10.40
2022-10-06T01:28:52.952Z,10.50
2022-10-06T01:31:27.314Z,11.60
2022-10-06T01:34:00.941Z,8.00
2022-10-06T01:36:34.979Z,8.90
2022-10-06T01:39:08.491Z,9.10
2022-10-06T01:41:42.750Z,11.50
2022-10-06T01:44:16.452Z,9.90
2022-10-06T01:46:50.749Z,9.60
2022-10-06T01:49:24.169Z,8.80
2022-10-06T01:52:00.862Z,11.80
2022-10-06T01:54:34.626Z,11.30
2022-10-06T01:57:09.021Z,11.10
2022-10-06T01:59:42.304Z,14.30
2022-10-06T02:02:15.891Z,10.60
2022-10-06T02:04:49.692Z,8.80
2022-10-06T02:07:23.697Z,10.20
2022-10-06T02:09:59.858Z,9.40
2022-10-06T02:12:38.005Z,7.80
2022-10-06T02:15:15.157Z,8.90
2022-10-06T02:17:49.145Z,10.60
2022-10-06T02:20:22.636Z,9.80
2022-10-06T02:22:56.485Z,11.90
2022-10-06T02:25:30.118Z,9.60
2022-10-06T02:28:03.439Z,9.70
2022-10-06T02:30:38.045Z,10.20
2022-10-06T02:33:11.641Z,7.50
2022-10-06T02:35:45.588Z,9.20
2022-10-06T02:38:19.262Z,9.40
2022-10-06T02:40:53.376Z,10.20
2022-10-06T02:43:29.260Z,9.90
2022-10-06T02:46:04.930Z,8.60
2022-10-06T02:48:40.052Z,9.90
2022-10-06T02:51:16.066Z,8.90
2022-10-06T02:53:51.247Z,10.40
2022-10-06T02:56:26.426Z,10.20
2022-10-06T02:59:00.004Z,11.10
2022-10-06T03:01:36.308Z,18.10
2022-10-06T03:04:16.518Z,7.90
2022-10-06T03:06:50.508Z,12.00
2022-10-06T03:09:37.972Z,10.10
2022-10-06T03:12:11.654Z,10.10
2022-10-06T03:14:47.257Z,9.60
2022-10-06T03:17:20.534Z,8.10
2022-10-06T03:19:58.412Z,11.00
2022-10-06T03:22:33.183Z,8.50
2022-10-06T03:25:06.611Z,13.90
2022-10-06T03:27:39.962Z,10.00
2022-10-06T03:30:15.284Z,10.10
2022-10-06T03:32:48.868Z,10.70
2022-10-06T03:35:22.288Z,11.00
2022-10-06T03:37:56.295Z,10.90
2022-10-06T03:40:29.795Z,9.50
2022-10-06T03:43:03.404Z,9.90
2022-10-06T03:45:36.970Z,11.00
2022-10-06T03:48:10.922Z,11.70
2022-10-06T03:50:45.220Z,9.00
2022-10-06T03:53:18.409Z,8.30
2022-10-06T03:55:51.613Z,8.80
2022-10-06T03:58:26.336Z,8.90
2022-10-06T04:01:06.947Z,9.30
2022-10-06T04:03:40.691Z,11.60
2022-10-06T04:06:19.313Z,9.20
2022-10-06T04:08:53.998Z,10.40
2022-10-06T04:11:29.138Z,7.90
2022-10-06T04:14:04.629Z,10.80
2022-10-06T04:16:40.378Z,9.10
2022-10-06T04:19:16.682Z,9.60
2022-10-06T04:21:53.977Z,10.00
2022-10-06T04:24:30.414Z,13.60
2022-10-06T04:27:18.532Z,8.80
2022-10-06T04:29:58.768Z,10.20
2022-10-06T04:32:32.648Z,9.90
2022-10-06T04:35:10.775Z,9.30
2022-10-06T04:37:48.251Z,10.70
2022-10-06T04:40:21.746Z,8.90
2022-10-06T04:42:56.655Z,8.70
2022-10-06T04:45:30.003Z,11.50
2022-10-06T04:48:03.425Z,12.70
2022-10-06T04:50:37.234Z,13.40
2022-10-06T04:53:13.974Z,10.40
2022-10-06T04:56:08.698Z,11.90
2022-10-06T04:58:45.530Z,14.00
2022-10-06T05:01:20.835Z,12.20
2022-10-06T05:03:56.193Z,9.00
2022-10-06T05:06:32.024Z,10.10
2022-10-06T05:09:08.269Z,9.40
2022-10-06T05:11:43.437Z,9.10
2022-10-06T05:14:19.864Z,11.00
2022-10-06T05:16:55.549Z,10.90
2022-10-06T05:19:34.574Z,10.20
2022-10-06T05:22:08.594Z,11.20
2022-10-06T05:24:42.432Z,11.10
2022-10-06T05:27:15.990Z,11.20
2022-10-06T05:29:49.540Z,9.90
2022-10-06T05:32:24.704Z,9.80
2022-10-06T05:34:58.638Z,9.90
2022-10-06T05:37:32.083Z,12.80
2022-10-06T05:40:05.431Z,13.10
2022-10-06T05:42:43.149Z,11.40
2022-10-06T05:45:18.294Z,11.70
2022-10-06T05:47:52.066Z,13.70
2022-10-06T05:50:26.171Z,11.10
2022-10-06T05:52:59.805Z,13.50
2022-10-06T05:55:33.633Z,10.60
2022-10-06T05:58:06.876Z,11.70
2022-10-06T06:00:40.732Z,9.80
2022-10-06T06:03:14.357Z,9.50
2022-10-06T06:05:47.889Z,10.80
2022-10-06T06:08:22.186Z,10.80
2022-10-06T06:10:56.101Z,9.30
2022-10-06T06:13:29.500Z,9.00
2022-10-06T06:16:15.272Z,11.50
2022-10-06T06:18:49.438Z,7.90
2022-10-06T06:21:24.343Z,10.60
2022-10-06T06:23:58.430Z,10.80
2022-10-06T06:26:33.087Z,9.60
2022-10-06T06:29:06.805Z,9.30
2022-10-06T06:31:46.606Z,10.00
2022-10-06T06:34:20.296Z,10.30
2022-10-06T06:37:03.629Z,8.10
2022-10-06T06:39:40.920Z,11.90
2022-10-06T06:42:15.044Z,9.00
2022-10-06T06:45:10.660Z,8.10
2022-10-06T06:48:02.237Z,9.90
2022-10-06T06:50:36.321Z,8.50
2022-10-06T06:53:15.476Z,11.20
2022-10-06T06:55:53.467Z,11.40
2022-10-06T06:58:29.090Z,8.80
2022-10-06T07:01:14.494Z,13.10
2022-10-06T07:04:01.283Z,10.70
2022-10-06T07:06:47.897Z,11.50
2022-10-06T07:09:32.736Z,11.60
2022-10-06T07:12:17.317Z,10.70
2022-10-06T07:15:10.324Z,10.20
2022-10-06T07:18:04.405Z,12.10
2022-10-06T07:20:55.899Z,9.30
2022-10-06T07:23:47.599Z,8.30
2022-10-06T07:26:24.018Z,10.50
2022-10-06T07:29:00.411Z,11.20
2022-10-06T07:31:34.769Z,15.70
2022-10-06T07:34:08.629Z,11.90
2022-10-06T07:36:43.788Z,10.90
2022-10-06T07:39:17.465Z,9.00
2022-10-06T07:41:51.203Z,11.90
2022-10-06T07:44:24.735Z,9.50
2022-10-06T07:46:58.519Z,7.90
2022-10-06T07:49:51.886Z,9.50
2022-10-06T07:52:25.716Z,9.80
2022-10-06T07:54:59.890Z,11.80
2022-10-06T07:57:59.946Z,12.30
2022-10-06T08:05:44.431Z,9.20
2022-10-06T08:08:19.109Z,9.40
2022-10-06T08:11:01.388Z,10.20
2022-10-06T08:13:36.698Z,8.50
2022-10-06T08:16:12.397Z,11.50
2022-10-06T08:18:50.497Z,10.70
2022-10-06T08:21:25.881Z,11.90
2022-10-06T08:24:03.545Z,15.30
2022-10-06T08:26:37.258Z,8.40
2022-10-06T08:29:11.866Z,17.00
2022-10-06T08:31:45.612Z,11.20
2022-10-06T08:34:19.387Z,10.60
2022-10-06T08:37:18.744Z,10.30
2022-10-06T08:39:46.755Z,13.20
2022-10-06T08:42:25.484Z,10.40
2022-10-06T08:47:37.757Z,15.90
2022-10-06T08:50:15.231Z,13.10
2022-10-06T08:52:59.080Z,10.20
2022-10-06T08:55:48.191Z,10.30
2022-10-06T08:58:53.879Z,9.10
2022-10-06T09:01:30.634Z,10.10
2022-10-06T09:04:07.611Z,11.70
2022-10-06T09:06:52.262Z,12.00
2022-10-06T09:09:57.354Z,9.70
2022-10-06T09:12:38.059Z,8.70
2022-10-06T09:15:28.660Z,8.80
2022-10-06T09:18:11.085Z,10.60
2022-10-06T09:20:52.240Z,9.10
2022-10-06T09:23:40.558Z,11.10
2022-10-06T09:26:17.209Z,7.90
2022-10-06T09:28:50.970Z,10.80
2022-10-06T09:31:27.241Z,11.80
2022-10-06T09:34:06.295Z,9.80
2022-10-06T09:37:03.518Z,9.70
2022-10-06T09:39:38.980Z,9.70
2022-10-06T09:42:20.620Z,13.20
2022-10-06T09:45:06.980Z,11.20
2022-10-06T09:47:46.384Z,9.70
2022-10-06T09:50:25.860Z,11.40
2022-10-06T09:53:22.326Z,10.50
2022-10-06T09:55:56.982Z,9.50
2022-10-06T09:58:34.912Z,8.20
2022-10-06T10:01:11.040Z,8.60
2022-10-06T10:06:46.767Z,8.80
2022-10-06T10:09:28.109Z,7.10
2022-10-06T10:12:33.080Z,16.30
2022-10-06T10:15:24.431Z,9.10
2022-10-06T10:18:00.069Z,8.40
2022-10-06T10:20:37.923Z,8.30
2022-10-06T10:23:30.086Z,6.70
2022-10-06T10:26:22.742Z,10.20
2022-10-06T10:29:16.841Z,9.30
2022-10-06T10:32:10.198Z,9.60
2022-10-06T10:35:03.617Z,9.00
2022-10-06T10:37:44.596Z,10.40
2022-10-06T10:40:32.751Z,9.00
2022-10-06T10:43:33.491Z,8.60
2022-10-06T10:46:32.196Z,9.50
2022-10-06T10:49:13.372Z,10.70
2022-10-06T10:51:55.018Z,9.90
2022-10-06T10:57:03.936Z,7.40
2022-10-06T10:59:42.691Z,15.20
2022-10-06T11:04:50.121Z,9.20
2022-10-06T11:07:30.157Z,9.10
2022-10-06T11:10:13.749Z,10.60
2022-10-06T11:13:04.913Z,9.50
2022-10-06T11:16:12.342Z,7.50
2022-10-06T11:18:57.804Z,8.10
2022-10-06T11:21:37.993Z,13.80
2022-10-06T11:24:18.109Z,14.50
2022-10-06T11:27:11.413Z,14.60
2022-10-06T11:30:03.964Z,10.60
2022-10-06T11:32:47.843Z,6.10
2022-10-06T11:35:27.230Z,7.70
2022-10-06T11:38:07.558Z,6.80
2022-10-06T11:41:10.249Z,9.50
2022-10-06T11:43:50.473Z,9.80
2022-10-06T11:46:35.805Z,5.80
2022-10-06T11:49:53.901Z,7.30
2022-10-06T11:52:49.965Z,6.90
2022-10-06T11:55:29.395Z,8.10
2022-10-06T12:01:55.259Z,7.00
2022-10-06T12:04:28.850Z,7.90
2022-10-06T12:07:06.920Z,9.20
2022-10-06T12:10:27.727Z,7.20
2022-10-06T12:13:49.285Z,7.80
2022-10-06T12:19:27.818Z,9.50
2022-10-06T12:22:23.067Z,9.20
2022-10-06T12:25:05.765Z,11.00
2022-10-06T12:27:52.747Z,6.10
2022-10-06T12:30:30.563Z,5.90
2022-10-06T12:33:06.061Z,6.80
2022-10-06T12:35:41.038Z,6.60
2022-10-06T12:39:02.643Z,9.80
2022-10-06T12:42:00.692Z,8.20
2022-10-06T12:44:39.412Z,7.20
2022-10-06T12:47:21.954Z,7.40
2022-10-06T12:49:56.938Z,7.80
2022-10-06T12:52:48.756Z,9.10
2022-10-06T12:56:00.300Z,8.40
2022-10-06T13:01:10.591Z,8.10
2022-10-06T13:03:49.116Z,7.80
2022-10-06T13:06:25.790Z,9.50
2022-10-06T13:09:15.183Z,7.30
2022-10-06T13:11:49.613Z,9.00
2022-10-06T13:14:23.208Z,7.60
2022-10-06T13:16:58.537Z,5.40
2022-10-06T13:19:37.093Z,9.30
2022-10-06T13:22:12.698Z,7.50
2022-10-06T13:24:45.880Z,7.30
2022-10-06T13:27:21.805Z,6.80
2022-10-06T13:30:19.651Z,7.70
2022-10-06T13:32:56.598Z,10.40
2022-10-06T13:35:30.274Z,7.60
2022-10-06T13:38:06.097Z,6.50
2022-10-06T13:40:45.225Z,6.70
2022-10-06T13:45:54.382Z,6.00
2022-10-06T13:48:30.510Z,6.80
2022-10-06T13:51:03.821Z,8.20
2022-10-06T13:53:36.885Z,4.40
2022-10-06T13:56:34.863Z,4.90
2022-10-06T13:59:31.263Z,3.50
2022-10-06T14:02:23.532Z,4.20
2022-10-06T14:05:31.648Z,4.80
2022-10-06T14:08:17.599Z,5.00
2022-10-06T14:10:53.557Z,8.60
2022-10-06T14:13:29.452Z,5.40
2022-10-06T14:16:04.387Z,5.10
2022-10-06T14:18:42.093Z,3.70
2022-10-06T14:21:30.907Z,5.10
2022-10-06T14:24:07.548Z,5.70
2022-10-06T14:26:44.201Z,4.70
2022-10-06T14:29:18.017Z,4.80
2022-10-06T14:31:51.715Z,6.70
2022-10-06T14:34:25.710Z,4.40
2022-10-06T14:36:59.143Z,5.70
2022-10-06T14:39:32.511Z,5.60
2022-10-06T14:42:06.311Z,6.30
2022-10-06T14:44:40.065Z,7.30
2022-10-06T14:47:14.201Z,6.10
2022-10-06T14:49:48.096Z,5.20
2022-10-06T14:52:22.748Z,3.20
2022-10-06T14:54:56.906Z,3.60
2022-10-06T14:57:30.559Z,3.20
2022-10-06T15:00:05.868Z,5.00
2022-10-06T15:02:39.502Z,4.50
2022-10-06T15:05:14.095Z,3.60
2022-10-06T15:08:04.904Z,4.20
2022-10-06T15:10:39.318Z,3.00
2022-10-06T15:13:12.471Z,4.10
2022-10-06T15:15:46.263Z,5.70
2022-10-06T15:18:19.427Z,7.10
2022-10-06T15:20:53.125Z,6.60
2022-10-06T15:23:26.257Z,5.90
2022-10-06T15:26:16.721Z,7.30
2022-10-06T15:29:03.416Z,4.60
2022-10-06T15:31:38.978Z,5.90
2022-10-06T15:34:14.597Z,3.70
2022-10-06T15:36:48.462Z,5.60
2022-10-06T15:39:24.983Z,4.70
2022-10-06T15:41:58.533Z,5.30
2022-10-06T15:44:35.367Z,5.80
2022-10-06T15:47:09.548Z,5.00
2022-10-06T15:49:42.715Z,5.50
2022-10-06T15:52:17.943Z,6.40
2022-10-06T15:54:52.369Z,8.00
2022-10-06T15:57:25.773Z,3.30
2022-10-06T15:59:59.646Z,6.60
2022-10-06T16:02:35.953Z,5.30
2022-10-06T16:05:33.584Z,7.20
2022-10-06T16:08:07.029Z,11.60
2022-10-06T16:10:40.694Z,9.90
2022-10-06T16:13:14.063Z,7.40
2022-10-06T16:15:53.850Z,10.60
2022-10-06T16:18:28.957Z,8.60
2022-10-06T16:21:02.353Z,9.50
2022-10-06T16:23:36.050Z,10.20
2022-10-06T16:26:09.416Z,9.90
2022-10-06T16:28:42.732Z,9.40
2022-10-06T16:31:16.552Z,8.30
2022-10-06T16:33:50.537Z,12.90
2022-10-06T16:36:24.289Z,8.00
2022-10-06T16:38:58.754Z,10.30
2022-10-06T16:41:32.338Z,12.70
2022-10-06T16:44:06.056Z,9.20
2022-10-06T16:46:39.679Z,11.10
2022-10-06T16:49:13.713Z,11.70
2022-10-06T16:51:47.657Z,11.10
2022-10-06T16:54:21.335Z,9.30
2022-10-06T16:56:55.643Z,8.40
2022-10-06T16:59:29.816Z,9.00
2022-10-06T17:02:03.287Z,9.70
2022-10-06T17:04:37.439Z,8.40
2022-10-06T17:07:11.180Z,9.20
2022-10-06T17:10:01.558Z,8.60
2022-10-06T17:12:38.549Z,7.40
2022-10-06T17:15:13.419Z,8.00
2022-10-06T17:17:47.015Z,10.70
2022-10-06T17:20:20.652Z,12.30
2022-10-06T17:22:55.606Z,9.80
2022-10-06T17:25:29.591Z,8.10
2022-10-06T17:28:02.921Z,9.10
2022-10-06T17:30:36.134Z,10.20
2022-10-06T17:33:09.588Z,9.80
2022-10-06T17:35:42.990Z,11.50
2022-10-06T17:38:16.296Z,9.70
2022-10-06T17:40:49.990Z,12.90
2022-10-06T17:43:23.727Z,11.00
2022-10-06T17:45:57.234Z,9.80
2022-10-06T17:48:31.009Z,13.00
2022-10-06T17:51:04.428Z,8.60
2022-10-06T17:53:39.936Z,10.00
2022-10-06T17:56:14.580Z,11.10
2022-10-06T17:58:53.891Z,12.70
2022-10-06T18:01:29.609Z,13.10
2022-10-06T18:04:04.557Z,12.80
2022-10-06T18:06:40.374Z,11.00
2022-10-06T18:09:14.950Z,12.20
2022-10-06T18:11:55.676Z,12.80
2022-10-06T18:14:32.674Z,11.00
2022-10-06T18:17:06.404Z,10.50
2022-10-06T18:19:39.899Z,11.90
2022-10-06T18:22:14.063Z,9.70
2022-10-06T18:24:47.912Z,10.30
2022-10-06T18:27:24.889Z,12.60
2022-10-06T18:29:58.638Z,10.80
2022-10-06T18:38:22.424Z,12.10
2022-10-06T18:41:02.363Z,15.30
2022-10-06T18:43:36.230Z,16.50
2022-10-06T18:46:30.233Z,14.90
2022-10-06T18:49:10.794Z,18.90
2022-10-06T18:51:46.549Z,15.60
2022-10-06T18:54:22.576Z,17.70
2022-10-06T18:56:56.666Z,18.40
2022-10-06T18:59:31.715Z,16.90
2022-10-06T19:02:06.515Z,16.00
2022-10-06T19:04:41.407Z,20.00
2022-10-06T19:07:15.433Z,20.70
2022-10-06T19:09:51.107Z,18.30
2022-10-06T19:12:24.802Z,22.20
2022-10-06T19:14:59.238Z,18.90
2022-10-06T19:17:33.661Z,19.20
2022-10-06T19:20:11.861Z,20.60
2022-10-06T19:22:48.025Z,22.20
2022-10-06T19:25:22.299Z,25.20
2022-10-06T19:27:56.517Z,19.90
2022-10-06T19:30:30.272Z,19.20
2022-10-06T19:33:05.085Z,20.30
2022-10-06T19:35:39.471Z,19.00
2022-10-06T19:38:12.680Z,16.30
2022-10-06T19:40:46.939Z,20.60
2022-10-06T19:43:22.348Z,21.60
2022-10-06T19:46:00.791Z,19.70
2022-10-06T19:48:34.866Z,18.20
2022-10-06T19:51:17.654Z,17.20
2022-10-06T19:53:52.181Z,19.10
2022-10-06T19:56:31.132Z,19.10
2022-10-06T19:59:06.031Z,20.10
2022-10-06T20:01:39.347Z,20.70
2022-10-06T20:04:13.660Z,19.10
2022-10-06T20:06:47.586Z,20.00
2022-10-06T20:09:22.578Z,19.50
2022-10-06T20:11:56.291Z,17.10
2022-10-06T20:14:29.874Z,19.30
2022-10-06T20:17:04.393Z,20.00
2022-10-06T20:19:38.816Z,19.50
2022-10-06T20:22:12.859Z,24.20
2022-10-06T20:24:48.092Z,20.60
2022-10-06T20:27:22.178Z,23.80
2022-10-06T20:29:58.414Z,20.50
2022-10-06T20:32:32.663Z,28.10
2022-10-06T20:35:06.734Z,23.30
2022-10-06T20:37:42.468Z,24.20
2022-10-06T20:40:33.892Z,20.50
2022-10-06T20:43:07.280Z,20.50
2022-10-06T20:45:40.605Z,24.60
2022-10-06T20:48:14.686Z,28.60
2022-10-06T20:50:48.437Z,22.90
2022-10-06T20:53:22.139Z,26.00
2022-10-06T20:55:58.797Z,21.40
2022-10-06T20:58:32.880Z,21.50
2022-10-06T21:01:11.316Z,18.90
2022-10-06T21:03:49.387Z,20.50
2022-10-06T21:06:24.178Z,23.60
2022-10-06T21:08:58.642Z,21.40
2022-10-06T21:11:32.718Z,22.80
2022-10-06T21:14:07.962Z,23.60
2022-10-06T21:16:43.289Z,24.40
2022-10-06T21:19:18.403Z,19.80
2022-10-06T21:21:56.506Z,23.00
2022-10-06T21:24:29.914Z,20.10
2022-10-06T21:27:03.640Z,17.40
2022-10-06T21:29:37.019Z,18.60
2022-10-06T21:32:11.376Z,21.90
2022-10-06T21:34:44.804Z,18.40
2022-10-06T21:37:18.507Z,23.50
2022-10-06T21:39:53.105Z,25.10
2022-10-06T21:42:26.794Z,21.60
2022-10-06T21:45:00.477Z,22.90
2022-10-06T21:47:34.935Z,23.60
2022-10-06T21:50:10.281Z,20.50
2022-10-06T21:52:44.283Z,19.90
2022-10-06T21:55:18.022Z,20.50
2022-10-06T21:57:52.383Z,23.00
2022-10-06T22:00:26.171Z,23.70
2022-10-06T22:02:59.887Z,24.50
2022-10-06T22:05:34.723Z,28.60
2022-10-06T22:08:08.322Z,26.70
2022-10-06T22:10:41.974Z,22.80
2022-10-06T22:13:15.629Z,21.00
2022-10-06T22:15:49.255Z,24.00
2022-10-06T22:18:22.929Z,26.40
2022-10-06T22:20:56.323Z,22.40
2022-10-06T22:23:29.942Z,24.90
2022-10-06T22:26:04.107Z,24.50
2022-10-06T22:28:38.140Z,24.60
2022-10-06T22:31:13.408Z,25.90
2022-10-06T22:33:51.635Z,24.30
2022-10-06T22:36:25.798Z,22.80
2022-10-06T22:38:59.868Z,26.00
2022-10-06T22:41:34.107Z,26.20
2022-10-06T22:44:07.923Z,23.60
2022-10-06T22:46:41.568Z,31.40
2022-10-06T22:49:15.151Z,24.00
2022-10-06T22:51:48.558Z,23.60
2022-10-06T22:54:26.652Z,28.10
2022-10-06T22:57:00.100Z,21.00
2022-10-06T22:59:34.185Z,26.20
2022-10-06T23:02:07.612Z,26.40
2022-10-06T23:04:41.289Z,24.20
2022-10-06T23:07:14.660Z,24.40
2022-10-06T23:09:49.043Z,23.30
2022-10-06T23:12:22.904Z,20.80
2022-10-06T23:14:56.591Z,23.20
2022-10-06T23:17:30.018Z,24.60
2022-10-06T23:20:04.277Z,21.40
2022-10-06T23:22:38.305Z,25.10
2022-10-06T23:25:13.286Z,21.80
2022-10-06T23:27:46.988Z,20.70
2022-10-06T23:30:21.059Z,23.60
2022-10-06T23:32:54.569Z,21.50
2022-10-06T23:35:28.023Z,21.50
2022-10-06T23:38:01.597Z,22.40
2022-10-06T23:40:35.864Z,25.50
2022-10-06T23:43:09.357Z,22.10
2022-10-06T23:45:42.853Z,23.10
2022-10-06T23:48:16.886Z,20.90
2022-10-06T23:51:00.825Z,23.80
2022-10-06T23:53:35.307Z,21.10
2022-10-06T23:56:09.430Z,24.50
2022-10-06T23:58:43.598Z,23.00
